createdAt,value
2018-04-13T00:00:02.226Z,14.94
2018-04-13T00:00:06.441Z,14.9
2018-04-13T00:00:10.538Z,14.83
2018-04-13T00:00:14.751Z,14.87
2018-04-13T00:00:19.067Z,14.91
2018-04-13T00:00:23.270Z,14.79
2018-04-13T00:00:27.582Z,14.94
2018-04-13T00:00:31.902Z,14.9
2018-04-13T00:00:36.121Z,14.93
2018-04-13T00:00:40.225Z,14.79
2018-04-13T00:00:44.537Z,14.79
2018-04-13T00:00:48.643Z,14.87
2018-04-13T00:00:52.848Z,14.94
2018-04-13T00:00:57.159Z,14.95
2018-04-13T00:01:01.476Z,14.82
2018-04-13T00:01:05.679Z,14.79
2018-04-13T00:01:09.893Z,14.93
2018-04-13T00:01:14.035Z,14.83
2018-04-13T00:01:18.243Z,14.95
2018-04-13T00:01:22.564Z,14.95
2018-04-13T00:01:26.769Z,14.91
2018-04-13T00:01:31.024Z,14.91
2018-04-13T00:01:35.338Z,14.82
2018-04-13T00:01:39.225Z,14.83
2018-04-13T00:01:43.430Z,14.95
2018-04-13T00:01:47.741Z,14.8
2018-04-13T00:01:51.842Z,14.82
2018-04-13T00:01:55.942Z,14.83
2018-04-13T00:02:00.149Z,14.83
2018-04-13T00:02:04.139Z,14.93
2018-04-13T00:02:08.353Z,14.9
2018-04-13T00:02:12.666Z,14.83
2018-04-13T00:02:16.989Z,14.82
2018-04-13T00:02:21.308Z,14.87
2018-04-13T00:02:25.408Z,14.78
2018-04-13T00:02:29.723Z,14.91
2018-04-13T00:02:33.714Z,14.8
2018-04-13T00:02:38.033Z,14.82
2018-04-13T00:02:42.025Z,14.86
2018-04-13T00:02:46.138Z,14.83
2018-04-13T00:02:50.342Z,14.83
2018-04-13T00:02:54.655Z,14.82
2018-04-13T00:02:58.860Z,14.85
2018-04-13T00:03:02.959Z,14.8
2018-04-13T00:03:07.061Z,14.8
2018-04-13T00:03:11.265Z,14.82
2018-04-13T00:03:15.579Z,14.79
2018-04-13T00:03:19.887Z,14.83
2018-04-13T00:03:23.986Z,14.87
2018-04-13T00:03:28.299Z,14.8
2018-04-13T00:03:32.610Z,14.83
2018-04-13T00:03:36.813Z,14.79
2018-04-13T00:03:41.138Z,14.85
2018-04-13T00:03:45.350Z,14.86
2018-04-13T00:03:49.666Z,14.82
2018-04-13T00:03:53.879Z,14.83
2018-04-13T00:03:58.190Z,14.86
2018-04-13T00:04:02.450Z,14.82
2018-04-13T00:04:06.596Z,14.86
2018-04-13T00:04:10.807Z,14.78
2018-04-13T00:04:14.904Z,14.75
2018-04-13T00:04:19.225Z,14.82
2018-04-13T00:04:23.431Z,14.79
2018-04-13T00:04:27.324Z,14.75
2018-04-13T00:04:31.529Z,14.86
2018-04-13T00:04:35.736Z,14.82
2018-04-13T00:04:39.953Z,14.83
2018-04-13T00:04:44.163Z,14.86
2018-04-13T00:04:48.484Z,14.83
2018-04-13T00:04:52.816Z,14.8
2018-04-13T00:04:57.027Z,14.82
2018-04-13T00:05:01.237Z,14.72
2018-04-13T00:05:05.495Z,14.79
2018-04-13T00:05:09.593Z,14.78
2018-04-13T00:05:13.588Z,14.78
2018-04-13T00:05:17.803Z,14.8
2018-04-13T00:05:22.117Z,14.79
2018-04-13T00:05:26.355Z,14.8
2018-04-13T00:05:30.559Z,14.75
2018-04-13T00:05:34.769Z,14.85
2018-04-13T00:05:39.090Z,14.79
2018-04-13T00:05:43.315Z,14.8
2018-04-13T00:05:47.638Z,14.85
2018-04-13T00:05:51.739Z,14.74
2018-04-13T00:05:55.945Z,14.8
2018-04-13T00:06:00.150Z,14.82
2018-04-13T00:06:04.249Z,14.82
2018-04-13T00:06:08.350Z,14.82
2018-04-13T00:06:12.674Z,14.82
2018-04-13T00:06:16.994Z,14.82
2018-04-13T00:06:21.199Z,14.75
2018-04-13T00:06:25.417Z,14.75
2018-04-13T00:06:29.744Z,14.8
2018-04-13T00:06:34.076Z,14.74
2018-04-13T00:06:38.394Z,14.74
2018-04-13T00:06:42.495Z,14.82
2018-04-13T00:06:46.808Z,14.8
2018-04-13T00:06:51.015Z,14.74
2018-04-13T00:06:55.118Z,14.71
2018-04-13T00:06:59.460Z,14.71
2018-04-13T00:07:03.666Z,14.8
2018-04-13T00:07:07.878Z,14.74
2018-04-13T00:07:12.123Z,14.8
2018-04-13T00:07:16.331Z,14.83
2018-04-13T00:07:20.666Z,14.74
2018-04-13T00:07:24.872Z,14.78
2018-04-13T00:07:29.186Z,14.71
2018-04-13T00:07:33.392Z,14.82
2018-04-13T00:07:37.597Z,14.8
2018-04-13T00:07:41.697Z,14.8
2018-04-13T00:07:45.693Z,14.79
2018-04-13T00:07:50.009Z,14.82
2018-04-13T00:07:54.341Z,14.82
2018-04-13T00:07:58.663Z,14.71
2018-04-13T00:08:02.871Z,14.75
2018-04-13T00:08:07.202Z,14.74
2018-04-13T00:08:11.436Z,14.78
2018-04-13T00:08:15.528Z,14.72
2018-04-13T00:08:19.846Z,14.72
2018-04-13T00:08:24.160Z,14.74
2018-04-13T00:08:28.281Z,14.74
2018-04-13T00:08:32.382Z,14.69
2018-04-13T00:08:36.595Z,14.69
2018-04-13T00:08:40.906Z,14.74
2018-04-13T00:08:45.221Z,14.75
2018-04-13T00:08:49.548Z,14.67
2018-04-13T00:08:53.754Z,14.78
2018-04-13T00:08:57.963Z,14.72
2018-04-13T00:09:02.169Z,14.72
2018-04-13T00:09:06.486Z,14.71
2018-04-13T00:09:10.690Z,14.67
2018-04-13T00:09:14.911Z,14.69
2018-04-13T00:09:19.239Z,14.71
2018-04-13T00:09:23.456Z,14.75
2018-04-13T00:09:27.925Z,14.72
2018-04-13T00:09:32.069Z,14.69
2018-04-13T00:09:36.386Z,14.71
2018-04-13T00:09:40.588Z,14.8
2018-04-13T00:09:44.702Z,14.74
2018-04-13T00:09:48.906Z,14.72
2018-04-13T00:09:53.235Z,14.72
2018-04-13T00:09:57.451Z,14.69
2018-04-13T00:10:01.558Z,14.63
2018-04-13T00:10:05.767Z,14.71
2018-04-13T00:10:09.973Z,14.67
2018-04-13T00:10:14.341Z,14.66
2018-04-13T00:10:18.557Z,14.72
2018-04-13T00:10:22.878Z,14.71
2018-04-13T00:10:27.023Z,14.66
2018-04-13T00:10:31.233Z,14.63
2018-04-13T00:10:35.454Z,14.72
2018-04-13T00:10:39.664Z,14.71
2018-04-13T00:10:43.982Z,14.74
2018-04-13T00:10:48.299Z,14.69
2018-04-13T00:10:52.403Z,14.74
2018-04-13T00:10:56.520Z,14.67
2018-04-13T00:11:00.842Z,14.69
2018-04-13T00:11:05.063Z,14.64
2018-04-13T00:11:09.272Z,14.67
2018-04-13T00:11:13.480Z,14.74
2018-04-13T00:11:17.586Z,14.67
2018-04-13T00:11:21.950Z,14.72
2018-04-13T00:11:26.179Z,14.64
2018-04-13T00:11:30.171Z,14.64
2018-04-13T00:11:34.381Z,14.72
2018-04-13T00:11:38.598Z,14.64
2018-04-13T00:11:42.591Z,14.72
2018-04-13T00:11:46.906Z,14.67
2018-04-13T00:11:51.117Z,14.72
2018-04-13T00:11:55.325Z,14.71
2018-04-13T00:11:59.537Z,14.71
2018-04-13T00:12:03.745Z,14.72
2018-04-13T00:12:07.960Z,14.63
2018-04-13T00:12:12.181Z,14.67
2018-04-13T00:12:16.391Z,14.67
2018-04-13T00:12:20.716Z,14.71
2018-04-13T00:12:25.056Z,14.6
2018-04-13T00:12:29.160Z,14.71
2018-04-13T00:12:33.377Z,14.63
2018-04-13T00:12:37.691Z,14.67
2018-04-13T00:12:41.681Z,14.67
2018-04-13T00:12:45.786Z,14.75
2018-04-13T00:12:50.116Z,14.66
2018-04-13T00:12:54.427Z,14.6
2018-04-13T00:12:58.738Z,14.67
2018-04-13T00:13:02.843Z,14.67
2018-04-13T00:13:07.178Z,14.6
2018-04-13T00:13:11.389Z,14.6
2018-04-13T00:13:15.708Z,14.63
2018-04-13T00:13:19.806Z,14.6
2018-04-13T00:13:23.904Z,14.66
2018-04-13T00:13:28.227Z,14.64
2018-04-13T00:13:32.433Z,14.69
2018-04-13T00:13:36.427Z,14.56
2018-04-13T00:13:40.632Z,14.57
2018-04-13T00:13:44.947Z,14.61
2018-04-13T00:13:49.158Z,14.57
2018-04-13T00:13:53.258Z,14.71
2018-04-13T00:13:57.461Z,14.63
2018-04-13T00:14:01.670Z,14.63
2018-04-13T00:14:05.662Z,14.56
2018-04-13T00:14:09.761Z,14.57
2018-04-13T00:14:13.754Z,14.59
2018-04-13T00:14:18.072Z,14.56
2018-04-13T00:14:22.380Z,14.61
2018-04-13T00:14:26.425Z,14.59
2018-04-13T00:14:30.315Z,14.54
2018-04-13T00:14:34.424Z,14.56
2018-04-13T00:14:38.751Z,14.54
2018-04-13T00:14:42.963Z,14.59
2018-04-13T00:14:47.282Z,14.61
2018-04-13T00:14:51.504Z,14.57
2018-04-13T00:14:55.864Z,14.57
2018-04-13T00:15:00.188Z,14.56
2018-04-13T00:15:04.290Z,14.57
2018-04-13T00:15:08.615Z,14.54
2018-04-13T00:15:12.824Z,14.59
2018-04-13T00:15:16.925Z,14.59
2018-04-13T00:15:21.136Z,14.56
2018-04-13T00:15:25.345Z,14.59
2018-04-13T00:15:29.447Z,14.52
2018-04-13T00:15:33.550Z,14.52
2018-04-13T00:15:37.757Z,14.59
2018-04-13T00:15:41.854Z,14.59
2018-04-13T00:15:46.061Z,14.57
2018-04-13T00:15:50.376Z,14.6
2018-04-13T00:15:54.587Z,14.54
2018-04-13T00:15:58.901Z,14.56
2018-04-13T00:16:02.998Z,14.57
2018-04-13T00:16:06.997Z,14.59
2018-04-13T00:16:11.213Z,14.57
2018-04-13T00:16:15.319Z,14.56
2018-04-13T00:16:19.632Z,14.57
2018-04-13T00:16:23.951Z,14.54
2018-04-13T00:16:28.163Z,14.56
2018-04-13T00:16:32.487Z,14.63
2018-04-13T00:16:36.582Z,14.59
2018-04-13T00:16:40.912Z,14.59
2018-04-13T00:16:45.226Z,14.56
2018-04-13T00:16:49.544Z,14.56
2018-04-13T00:16:53.758Z,14.56
2018-04-13T00:16:58.067Z,14.54
2018-04-13T00:17:02.322Z,14.49
2018-04-13T00:17:06.530Z,14.59
2018-04-13T00:17:10.633Z,14.56
2018-04-13T00:17:14.729Z,14.54
2018-04-13T00:17:19.041Z,14.54
2018-04-13T00:17:23.246Z,14.56
2018-04-13T00:17:27.566Z,14.59
2018-04-13T00:17:31.919Z,14.54
2018-04-13T00:17:36.138Z,14.54
2018-04-13T00:17:40.236Z,14.56
2018-04-13T00:17:44.382Z,14.59
2018-04-13T00:17:48.697Z,14.54
2018-04-13T00:17:53.012Z,14.54
2018-04-13T00:17:57.229Z,14.44
2018-04-13T00:18:01.544Z,14.59
2018-04-13T00:18:05.757Z,14.48
2018-04-13T00:18:09.975Z,14.57
2018-04-13T00:18:14.297Z,14.42
2018-04-13T00:18:18.609Z,14.56
2018-04-13T00:18:22.817Z,14.53
2018-04-13T00:18:27.021Z,14.54
2018-04-13T00:18:31.020Z,14.52
2018-04-13T00:18:35.341Z,14.45
2018-04-13T00:18:39.550Z,14.48
2018-04-13T00:18:43.757Z,14.46
2018-04-13T00:18:48.080Z,14.49
2018-04-13T00:18:52.389Z,14.46
2018-04-13T00:18:56.705Z,14.54
2018-04-13T00:19:00.909Z,14.53
2018-04-13T00:19:05.014Z,14.46
2018-04-13T00:19:09.118Z,14.48
2018-04-13T00:19:13.433Z,14.44
2018-04-13T00:19:17.743Z,14.56
2018-04-13T00:19:21.988Z,14.46
2018-04-13T00:19:26.196Z,14.56
2018-04-13T00:19:30.186Z,14.53
2018-04-13T00:19:34.395Z,14.52
2018-04-13T00:19:38.710Z,14.53
2018-04-13T00:19:42.920Z,14.54
2018-04-13T00:19:47.125Z,14.49
2018-04-13T00:19:51.439Z,14.44
2018-04-13T00:19:55.753Z,14.56
2018-04-13T00:20:00.068Z,14.52
2018-04-13T00:20:04.390Z,14.46
2018-04-13T00:20:08.594Z,14.48
2018-04-13T00:20:12.591Z,14.56
2018-04-13T00:20:16.794Z,14.48
2018-04-13T00:20:21.006Z,14.56
2018-04-13T00:20:25.325Z,14.52
2018-04-13T00:20:29.644Z,14.48
2018-04-13T00:20:33.747Z,14.48
2018-04-13T00:20:37.863Z,14.42
2018-04-13T00:20:42.181Z,14.52
2018-04-13T00:20:46.385Z,14.48
2018-04-13T00:20:50.708Z,14.45
2018-04-13T00:20:54.922Z,14.48
2018-04-13T00:20:59.237Z,14.53
2018-04-13T00:21:03.553Z,14.52
2018-04-13T00:21:07.654Z,14.46
2018-04-13T00:21:11.863Z,14.53
2018-04-13T00:21:16.176Z,14.49
2018-04-13T00:21:20.168Z,14.42
2018-04-13T00:21:24.371Z,14.48
2018-04-13T00:21:28.692Z,14.45
2018-04-13T00:21:32.900Z,14.48
2018-04-13T00:21:37.212Z,14.49
2018-04-13T00:21:41.419Z,14.46
2018-04-13T00:21:45.635Z,14.48
2018-04-13T00:21:49.738Z,14.41
2018-04-13T00:21:53.839Z,14.44
2018-04-13T00:21:57.942Z,14.42
2018-04-13T00:22:02.048Z,14.48
2018-04-13T00:22:06.154Z,14.41
2018-04-13T00:22:10.467Z,14.41
2018-04-13T00:22:14.351Z,14.49
2018-04-13T00:22:18.568Z,14.41
2018-04-13T00:22:22.665Z,14.44
2018-04-13T00:22:26.882Z,14.42
2018-04-13T00:22:31.090Z,14.41
2018-04-13T00:22:35.189Z,14.46
2018-04-13T00:22:39.411Z,14.41
2018-04-13T00:22:43.513Z,14.48
2018-04-13T00:22:47.616Z,14.39
2018-04-13T00:22:51.825Z,14.46
2018-04-13T00:22:55.927Z,14.42
2018-04-13T00:23:00.244Z,14.44
2018-04-13T00:23:04.337Z,14.45
2018-04-13T00:23:08.548Z,14.42
2018-04-13T00:23:12.755Z,14.44
2018-04-13T00:23:16.965Z,14.45
2018-04-13T00:23:21.274Z,14.44
2018-04-13T00:23:25.265Z,14.45
2018-04-13T00:23:29.365Z,14.49
2018-04-13T00:23:33.680Z,14.39
2018-04-13T00:23:38.000Z,14.42
2018-04-13T00:23:42.313Z,14.45
2018-04-13T00:23:46.519Z,14.45
2018-04-13T00:23:50.618Z,14.39
2018-04-13T00:23:54.724Z,14.41
2018-04-13T00:23:58.936Z,14.45
2018-04-13T00:24:03.307Z,14.45
2018-04-13T00:24:07.411Z,14.42
2018-04-13T00:24:11.618Z,14.42
2018-04-13T00:24:16.060Z,14.41
2018-04-13T00:24:20.318Z,14.42
2018-04-13T00:24:24.524Z,14.44
2018-04-13T00:24:28.632Z,14.42
2018-04-13T00:24:32.832Z,14.45
2018-04-13T00:24:36.936Z,14.44
2018-04-13T00:24:41.039Z,14.45
2018-04-13T00:24:45.148Z,14.39
2018-04-13T00:24:49.468Z,14.41
2018-04-13T00:24:53.676Z,14.45
2018-04-13T00:24:57.887Z,14.42
2018-04-13T00:25:02.252Z,14.41
2018-04-13T00:25:06.247Z,14.48
2018-04-13T00:25:10.562Z,14.38
2018-04-13T00:25:14.883Z,14.39
2018-04-13T00:25:19.204Z,14.46
2018-04-13T00:25:23.410Z,14.39
2018-04-13T00:25:27.732Z,14.39
2018-04-13T00:25:31.944Z,14.44
2018-04-13T00:25:36.297Z,14.34
2018-04-13T00:25:40.621Z,14.42
2018-04-13T00:25:44.832Z,14.46
2018-04-13T00:25:49.166Z,14.42
2018-04-13T00:25:53.382Z,14.45
2018-04-13T00:25:57.482Z,14.48
2018-04-13T00:26:01.817Z,14.44
2018-04-13T00:26:05.810Z,14.41
2018-04-13T00:26:09.910Z,14.46
2018-04-13T00:26:14.223Z,14.45
2018-04-13T00:26:18.430Z,14.41
2018-04-13T00:26:22.635Z,14.45
2018-04-13T00:26:26.842Z,14.38
2018-04-13T00:26:31.153Z,14.45
2018-04-13T00:26:35.368Z,14.35
2018-04-13T00:26:39.574Z,14.42
2018-04-13T00:26:43.777Z,14.39
2018-04-13T00:26:47.768Z,14.39
2018-04-13T00:26:51.975Z,14.41
2018-04-13T00:26:56.288Z,14.31
2018-04-13T00:27:00.608Z,14.35
2018-04-13T00:27:04.710Z,14.39
2018-04-13T00:27:08.923Z,14.36
2018-04-13T00:27:13.235Z,14.36
2018-04-13T00:27:17.339Z,14.3
2018-04-13T00:27:21.560Z,14.42
2018-04-13T00:27:25.876Z,14.41
2018-04-13T00:27:30.084Z,14.35
2018-04-13T00:27:34.332Z,14.46
2018-04-13T00:27:38.650Z,14.34
2018-04-13T00:27:42.863Z,14.29
2018-04-13T00:27:47.070Z,14.24
2018-04-13T00:27:51.391Z,14.26
2018-04-13T00:27:55.594Z,14.31
2018-04-13T00:27:59.910Z,14.34
2018-04-13T00:28:04.069Z,14.27
2018-04-13T00:28:08.177Z,14.3
2018-04-13T00:28:12.284Z,14.29
2018-04-13T00:28:16.606Z,14.29
2018-04-13T00:28:20.911Z,14.27
2018-04-13T00:28:25.119Z,14.27
2018-04-13T00:28:29.435Z,14.29
2018-04-13T00:28:33.648Z,14.29
2018-04-13T00:28:37.856Z,14.27
2018-04-13T00:28:42.072Z,14.3
2018-04-13T00:28:46.382Z,14.26
2018-04-13T00:28:50.485Z,14.29
2018-04-13T00:28:54.697Z,14.3
2018-04-13T00:28:59.024Z,14.29
2018-04-13T00:29:03.343Z,14.27
2018-04-13T00:29:07.334Z,14.29
2018-04-13T00:29:11.655Z,14.34
2018-04-13T00:29:15.654Z,14.26
2018-04-13T00:29:19.759Z,14.21
2018-04-13T00:29:23.966Z,14.26
2018-04-13T00:29:28.065Z,14.27
2018-04-13T00:29:32.273Z,14.3
2018-04-13T00:29:36.476Z,14.24
2018-04-13T00:29:40.786Z,14.29
2018-04-13T00:29:45.101Z,14.3
2018-04-13T00:29:49.094Z,14.31
2018-04-13T00:29:53.422Z,14.29
2018-04-13T00:29:57.637Z,14.3
2018-04-13T00:30:01.863Z,14.27
2018-04-13T00:30:06.240Z,14.29
2018-04-13T00:30:10.457Z,14.34
2018-04-13T00:30:14.439Z,14.3
2018-04-13T00:30:18.765Z,14.23
2018-04-13T00:30:23.076Z,14.26
2018-04-13T00:30:27.281Z,14.24
2018-04-13T00:30:31.593Z,14.26
2018-04-13T00:30:35.798Z,14.21
2018-04-13T00:30:40.116Z,14.27
2018-04-13T00:30:44.433Z,14.34
2018-04-13T00:30:48.531Z,14.24
2018-04-13T00:30:52.731Z,14.27
2018-04-13T00:30:56.944Z,14.23
2018-04-13T00:31:01.266Z,14.31
2018-04-13T00:31:05.476Z,14.3
2018-04-13T00:31:09.799Z,14.24
2018-04-13T00:31:14.014Z,14.23
2018-04-13T00:31:18.111Z,14.26
2018-04-13T00:31:22.227Z,14.29
2018-04-13T00:31:26.540Z,14.3
2018-04-13T00:31:30.919Z,14.27
2018-04-13T00:31:35.239Z,14.2
2018-04-13T00:31:39.344Z,14.21
2018-04-13T00:31:43.335Z,14.26
2018-04-13T00:31:47.649Z,14.2
2018-04-13T00:31:51.755Z,14.2
2018-04-13T00:31:56.072Z,14.21
2018-04-13T00:32:00.397Z,14.24
2018-04-13T00:32:04.502Z,14.2
2018-04-13T00:32:08.503Z,14.16
2018-04-13T00:32:12.714Z,14.26
2018-04-13T00:32:16.924Z,14.21
2018-04-13T00:32:21.243Z,14.21
2018-04-13T00:32:25.449Z,14.26
2018-04-13T00:32:29.544Z,14.2
2018-04-13T00:32:33.745Z,14.21
2018-04-13T00:32:37.951Z,14.29
2018-04-13T00:32:42.048Z,14.23
2018-04-13T00:32:46.251Z,14.21
2018-04-13T00:32:50.568Z,14.24
2018-04-13T00:32:54.672Z,14.27
2018-04-13T00:32:58.791Z,14.26
2018-04-13T00:33:02.786Z,14.24
2018-04-13T00:33:07.002Z,14.2
2018-04-13T00:33:11.212Z,14.2
2018-04-13T00:33:15.530Z,14.24
2018-04-13T00:33:19.737Z,14.2
2018-04-13T00:33:23.951Z,14.19
2018-04-13T00:33:28.178Z,14.21
2018-04-13T00:33:32.280Z,14.21
2018-04-13T00:33:36.594Z,14.2
2018-04-13T00:33:40.703Z,14.19
2018-04-13T00:33:44.699Z,14.23
2018-04-13T00:33:48.905Z,14.26
2018-04-13T00:33:53.108Z,14.23
2018-04-13T00:33:57.315Z,14.2
2018-04-13T00:34:01.526Z,14.24
2018-04-13T00:34:05.626Z,14.23
2018-04-13T00:34:09.837Z,14.29
2018-04-13T00:34:13.828Z,14.21
2018-04-13T00:34:18.035Z,14.24
2018-04-13T00:34:22.349Z,14.21
2018-04-13T00:34:26.340Z,14.24
2018-04-13T00:34:30.342Z,14.21
2018-04-13T00:34:34.549Z,14.23
2018-04-13T00:34:38.756Z,14.3
2018-04-13T00:34:42.963Z,14.26
2018-04-13T00:34:47.180Z,14.17
2018-04-13T00:34:51.390Z,14.21
2018-04-13T00:34:55.601Z,14.19
2018-04-13T00:34:59.809Z,14.17
2018-04-13T00:35:03.909Z,14.2
2018-04-13T00:35:08.117Z,14.17
2018-04-13T00:35:12.121Z,14.2
2018-04-13T00:35:16.327Z,14.17
2018-04-13T00:35:20.542Z,14.17
2018-04-13T00:35:24.536Z,14.21
2018-04-13T00:35:28.857Z,14.17
2018-04-13T00:35:33.183Z,14.16
2018-04-13T00:35:37.490Z,14.17
2018-04-13T00:35:41.828Z,14.16
2018-04-13T00:35:46.144Z,14.13
2018-04-13T00:35:50.462Z,14.19
2018-04-13T00:35:54.667Z,14.12
2018-04-13T00:35:58.764Z,14.17
2018-04-13T00:36:03.125Z,14.17
2018-04-13T00:36:07.120Z,14.17
2018-04-13T00:36:11.107Z,14.17
2018-04-13T00:36:15.313Z,14.13
2018-04-13T00:36:19.630Z,14.19
2018-04-13T00:36:23.836Z,14.19
2018-04-13T00:36:28.153Z,14.2
2018-04-13T00:36:32.473Z,14.23
2018-04-13T00:36:36.575Z,14.13
2018-04-13T00:36:40.792Z,14.16
2018-04-13T00:36:45.109Z,14.11
2018-04-13T00:36:49.209Z,14.19
2018-04-13T00:36:53.410Z,14.2
2018-04-13T00:36:57.733Z,14.13
2018-04-13T00:37:02.061Z,14.12
2018-04-13T00:37:06.333Z,14.16
2018-04-13T00:37:10.539Z,14.11
2018-04-13T00:37:14.747Z,14.13
2018-04-13T00:37:19.068Z,14.13
2018-04-13T00:37:23.388Z,14.16
2018-04-13T00:37:27.603Z,14.12
2018-04-13T00:37:31.808Z,14.11
2018-04-13T00:37:36.125Z,14.2
2018-04-13T00:37:40.329Z,14.11
2018-04-13T00:37:44.533Z,14.17
2018-04-13T00:37:48.736Z,14.13
2018-04-13T00:37:52.833Z,14.09
2018-04-13T00:37:57.037Z,14.12
2018-04-13T00:38:01.357Z,14.06
2018-04-13T00:38:05.672Z,14.12
2018-04-13T00:38:09.786Z,14.08
2018-04-13T00:38:13.666Z,14.09
2018-04-13T00:38:17.991Z,14.06
2018-04-13T00:38:22.325Z,14.04
2018-04-13T00:38:26.318Z,14.08
2018-04-13T00:38:30.521Z,14.08
2018-04-13T00:38:34.726Z,14.13
2018-04-13T00:38:38.937Z,14.12
2018-04-13T00:38:43.161Z,14.12
2018-04-13T00:38:47.474Z,14.08
2018-04-13T00:38:51.800Z,14.06
2018-04-13T00:38:55.902Z,14.04
2018-04-13T00:39:00.114Z,14.13
2018-04-13T00:39:04.215Z,14.11
2018-04-13T00:39:08.223Z,14.04
2018-04-13T00:39:12.432Z,14.06
2018-04-13T00:39:16.638Z,14.02
2018-04-13T00:39:20.955Z,14.04
2018-04-13T00:39:25.058Z,14.06
2018-04-13T00:39:28.945Z,14.13
2018-04-13T00:39:33.043Z,14.06
2018-04-13T00:39:37.145Z,14.12
2018-04-13T00:39:41.355Z,14.11
2018-04-13T00:39:45.351Z,14.08
2018-04-13T00:39:49.675Z,14.06
2018-04-13T00:39:53.986Z,14.11
2018-04-13T00:39:58.196Z,14.04
2018-04-13T00:40:02.409Z,14.08
2018-04-13T00:40:06.406Z,14.01
2018-04-13T00:40:10.720Z,14.16
2018-04-13T00:40:14.713Z,14.01
2018-04-13T00:40:18.922Z,14.09
2018-04-13T00:40:23.232Z,14.13
2018-04-13T00:40:27.445Z,14.12
2018-04-13T00:40:31.763Z,14.04
2018-04-13T00:40:36.116Z,14.13
2018-04-13T00:40:40.433Z,14.17
2018-04-13T00:40:44.426Z,14.11
2018-04-13T00:40:48.739Z,14.04
2018-04-13T00:40:52.727Z,14.04
2018-04-13T00:40:57.045Z,14.12
2018-04-13T00:41:01.255Z,14.01
2018-04-13T00:41:05.256Z,14.01
2018-04-13T00:41:09.375Z,14.09
2018-04-13T00:41:13.696Z,14.09
2018-04-13T00:41:17.911Z,14.13
2018-04-13T00:41:22.226Z,14.09
2018-04-13T00:41:26.322Z,14.01
2018-04-13T00:41:30.423Z,14.06
2018-04-13T00:41:34.527Z,14.01
2018-04-13T00:41:38.629Z,14.16
2018-04-13T00:41:42.837Z,14.17
2018-04-13T00:41:47.145Z,14.04
2018-04-13T00:41:51.418Z,14.11
2018-04-13T00:41:55.516Z,14.12
2018-04-13T00:41:59.724Z,14.04
2018-04-13T00:42:03.825Z,14.11
2018-04-13T00:42:08.044Z,14.06
2018-04-13T00:42:12.366Z,14.04
2018-04-13T00:42:16.680Z,14.09
2018-04-13T00:42:20.893Z,14.04
2018-04-13T00:42:24.994Z,14.05
2018-04-13T00:42:29.311Z,14.04
2018-04-13T00:42:33.621Z,14.04
2018-04-13T00:42:37.847Z,14.01
2018-04-13T00:42:42.059Z,14.13
2018-04-13T00:42:46.264Z,14.04
2018-04-13T00:42:50.586Z,14.08
2018-04-13T00:42:54.873Z,14.08
2018-04-13T00:42:59.189Z,14.04
2018-04-13T00:43:03.177Z,14.13
2018-04-13T00:43:07.389Z,14.12
2018-04-13T00:43:11.549Z,14.04
2018-04-13T00:43:15.869Z,14.01
2018-04-13T00:43:20.078Z,14.17
2018-04-13T00:43:24.394Z,14.02
2018-04-13T00:43:28.708Z,14.04
2018-04-13T00:43:32.919Z,14.04
2018-04-13T00:43:37.021Z,14.13
2018-04-13T00:43:41.336Z,14.08
2018-04-13T00:43:45.547Z,14.12
2018-04-13T00:43:49.865Z,14.12
2018-04-13T00:43:54.175Z,14.08
2018-04-13T00:43:58.328Z,14.01
2018-04-13T00:44:02.535Z,14.04
2018-04-13T00:44:06.431Z,14.04
2018-04-13T00:44:10.668Z,14.06
2018-04-13T00:44:14.913Z,14.12
2018-04-13T00:44:19.129Z,14.04
2018-04-13T00:44:23.345Z,14.12
2018-04-13T00:44:27.715Z,14.04
2018-04-13T00:44:31.920Z,14.08
2018-04-13T00:44:36.128Z,14.02
2018-04-13T00:44:40.444Z,14.11
2018-04-13T00:44:44.543Z,14.09
2018-04-13T00:44:48.865Z,14.04
2018-04-13T00:44:53.073Z,14.04
2018-04-13T00:44:57.282Z,14.04
2018-04-13T00:45:01.485Z,14.11
2018-04-13T00:45:05.486Z,14.04
2018-04-13T00:45:09.694Z,14.11
2018-04-13T00:45:13.798Z,14.06
2018-04-13T00:45:18.119Z,14.06
2018-04-13T00:45:22.444Z,14.05
2018-04-13T00:45:26.750Z,14.11
2018-04-13T00:45:31.074Z,14.04
2018-04-13T00:45:35.172Z,14.12
2018-04-13T00:45:39.386Z,14.06
2018-04-13T00:45:43.606Z,14.04
2018-04-13T00:45:47.928Z,14.04
2018-04-13T00:45:52.025Z,14.04
2018-04-13T00:45:56.239Z,14.13
2018-04-13T00:46:00.554Z,14.11
2018-04-13T00:46:04.696Z,14.06
2018-04-13T00:46:08.910Z,14.04
2018-04-13T00:46:13.125Z,14.13
2018-04-13T00:46:17.446Z,14.04
2018-04-13T00:46:21.331Z,14.13
2018-04-13T00:46:25.536Z,14.13
2018-04-13T00:46:29.747Z,14.13
2018-04-13T00:46:33.983Z,14.06
2018-04-13T00:46:38.078Z,14.06
2018-04-13T00:46:42.390Z,14.04
2018-04-13T00:46:46.592Z,14.04
2018-04-13T00:46:50.805Z,14.12
2018-04-13T00:46:55.123Z,14.13
2018-04-13T00:46:59.220Z,14.12
2018-04-13T00:47:03.214Z,14.12
2018-04-13T00:47:07.419Z,14.06
2018-04-13T00:47:11.635Z,14.09
2018-04-13T00:47:15.846Z,14.04
2018-04-13T00:47:20.172Z,14.06
2018-04-13T00:47:24.162Z,14.12
2018-04-13T00:47:28.371Z,14.01
2018-04-13T00:47:32.509Z,14.16
2018-04-13T00:47:36.836Z,14.04
2018-04-13T00:47:41.043Z,14.01
2018-04-13T00:47:45.367Z,14.04
2018-04-13T00:47:49.571Z,14.04
2018-04-13T00:47:53.672Z,14.02
2018-04-13T00:47:57.987Z,14.06
2018-04-13T00:48:02.189Z,14.04
2018-04-13T00:48:06.508Z,14.04
2018-04-13T00:48:10.617Z,14.04
2018-04-13T00:48:14.835Z,14.12
2018-04-13T00:48:19.041Z,14.13
2018-04-13T00:48:23.260Z,14.06
2018-04-13T00:48:27.584Z,14.04
2018-04-13T00:48:31.808Z,14.04
2018-04-13T00:48:36.128Z,14.11
2018-04-13T00:48:40.445Z,14.09
2018-04-13T00:48:44.655Z,14.04
2018-04-13T00:48:48.965Z,14.06
2018-04-13T00:48:53.286Z,14.04
2018-04-13T00:48:57.390Z,14.12
2018-04-13T00:49:01.600Z,14.01
2018-04-13T00:49:05.707Z,14.12
2018-04-13T00:49:09.920Z,14.01
2018-04-13T00:49:14.130Z,14.06
2018-04-13T00:49:18.121Z,14.06
2018-04-13T00:49:22.331Z,14.11
2018-04-13T00:49:26.328Z,14.06
2018-04-13T00:49:30.220Z,14.04
2018-04-13T00:49:34.320Z,14.11
2018-04-13T00:49:38.527Z,14.04
2018-04-13T00:49:42.846Z,14.12
2018-04-13T00:49:47.055Z,14.09
2018-04-13T00:49:51.372Z,14.04
2018-04-13T00:49:55.579Z,14.08
2018-04-13T00:49:59.678Z,14.05
2018-04-13T00:50:03.792Z,14.08
2018-04-13T00:50:07.896Z,14.16
2018-04-13T00:50:12.103Z,14.06
2018-04-13T00:50:16.308Z,14.16
2018-04-13T00:50:20.628Z,14.06
2018-04-13T00:50:24.988Z,14.06
2018-04-13T00:50:29.310Z,14.08
2018-04-13T00:50:33.407Z,14.02
2018-04-13T00:50:37.727Z,14.12
2018-04-13T00:50:42.037Z,14.12
2018-04-13T00:50:46.135Z,14.13
2018-04-13T00:50:50.455Z,14.09
2018-04-13T00:50:54.771Z,14.12
2018-04-13T00:50:58.999Z,14.04
2018-04-13T00:51:02.993Z,14.12
2018-04-13T00:51:07.210Z,14.11
2018-04-13T00:51:11.422Z,14.05
2018-04-13T00:51:15.638Z,14.17
2018-04-13T00:51:19.851Z,14.02
2018-04-13T00:51:24.064Z,14.12
2018-04-13T00:51:28.376Z,14.11
2018-04-13T00:51:32.615Z,14.12
2018-04-13T00:51:36.944Z,14.11
2018-04-13T00:51:41.156Z,14.11
2018-04-13T00:51:45.483Z,14.13
2018-04-13T00:51:49.801Z,14.04
2018-04-13T00:51:53.796Z,14.08
2018-04-13T00:51:58.007Z,14.08
2018-04-13T00:52:02.107Z,14.12
2018-04-13T00:52:06.245Z,14.11
2018-04-13T00:52:10.343Z,14.13
2018-04-13T00:52:14.336Z,14.09
2018-04-13T00:52:18.650Z,14.05
2018-04-13T00:52:22.850Z,14.05
2018-04-13T00:52:27.179Z,14.05
2018-04-13T00:52:31.389Z,14.06
2018-04-13T00:52:35.700Z,14.08
2018-04-13T00:52:39.908Z,14.09
2018-04-13T00:52:44.110Z,14.11
2018-04-13T00:52:48.316Z,14.09
2018-04-13T00:52:52.535Z,14.02
2018-04-13T00:52:56.737Z,14.08
2018-04-13T00:53:01.057Z,14.04
2018-04-13T00:53:05.051Z,14.05
2018-04-13T00:53:09.366Z,14.06
2018-04-13T00:53:13.475Z,14.06
2018-04-13T00:53:17.685Z,14.05
2018-04-13T00:53:22.004Z,13.99
2018-04-13T00:53:26.097Z,14.02
2018-04-13T00:53:30.418Z,14.05
2018-04-13T00:53:34.629Z,14.02
2018-04-13T00:53:38.837Z,14.05
2018-04-13T00:53:43.157Z,14.04
2018-04-13T00:53:47.264Z,14.04
2018-04-13T00:53:51.372Z,13.99
2018-04-13T00:53:55.689Z,14.05
2018-04-13T00:53:59.802Z,14.05
2018-04-13T00:54:04.070Z,14.04
2018-04-13T00:54:08.174Z,13.99
2018-04-13T00:54:12.389Z,14.02
2018-04-13T00:54:16.390Z,14.02
2018-04-13T00:54:20.604Z,14.05